Time;durP1;ratioP1;P1;durP2;ratioP2;P2;SDS_P1;SDS_P2;PMS_P1;PMS_P2;Temp;Humidity;BMP_temperature;BMP_pressure;BME280_temperature;BME280_humidity;BME280_pressure;Samples;Min_cycle;Max_cycle;Signal;HPM_P1;HPM_P2
2020/12/06 00:00:54;;;;;;;3.10;2.90;;;19.90;47.00;;;;;;5067636;28;20500;-69
2020/12/06 00:03:20;;;;;;;3.07;2.87;;;19.90;47.10;;;;;;5075850;28;20484;-67
2020/12/06 00:05:46;;;;;;;2.37;2.27;;;19.90;46.90;;;;;;5070652;28;20485;-68
2020/12/06 00:08:12;;;;;;;2.70;2.60;;;19.90;46.90;;;;;;5075416;28;20493;-69
2020/12/06 00:10:39;;;;;;;2.50;2.40;;;19.90;47.00;;;;;;5060018;28;20511;-69
2020/12/06 00:13:05;;;;;;;2.63;2.53;;;19.80;46.90;;;;;;5077801;28;20485;-66
2020/12/06 00:15:31;;;;;;;2.60;2.40;;;19.90;46.90;;;;;;5071660;28;20506;-68
2020/12/06 00:17:57;;;;;;;2.53;2.43;;;19.90;46.90;;;;;;5061814;28;20506;-67
2020/12/06 00:20:24;;;;;;;2.70;2.60;;;19.90;46.90;;;;;;5057308;28;20481;-68
2020/12/06 00:22:50;;;;;;;2.80;2.60;;;19.80;46.90;;;;;;5061277;28;20519;-67
2020/12/06 00:25:16;;;;;;;3.20;3.00;;;19.80;46.90;;;;;;5049752;28;20493;-68
2020/12/06 00:27:43;;;;;;;2.80;2.60;;;19.80;46.90;;;;;;5043445;28;20575;-68
2020/12/06 00:30:09;;;;;;;2.60;2.50;;;19.80;47.00;;;;;;5066559;28;20479;-69
2020/12/06 00:32:35;;;;;;;2.60;2.50;;;19.80;47.10;;;;;;5046058;28;20490;-67
2020/12/06 00:35:02;;;;;;;2.73;2.63;;;19.80;47.10;;;;;;5049878;28;20484;-68
2020/12/06 00:37:28;;;;;;;3.47;3.27;;;19.80;47.10;;;;;;5051000;28;20920;-68
2020/12/06 00:39:54;;;;;;;2.70;2.60;;;19.70;47.10;;;;;;5027814;28;20536;-68
2020/12/06 00:42:20;;;;;;;2.97;2.77;;;19.70;47.20;;;;;;5040563;28;20485;-68
2020/12/06 00:44:47;;;;;;;4.67;2.73;;;19.70;47.30;;;;;;5023885;28;20998;-69
2020/12/06 00:47:13;;;;;;;3.00;2.80;;;19.70;47.30;;;;;;5035596;28;20498;-69
2020/12/06 00:49:39;;;;;;;3.33;3.07;;;19.70;47.30;;;;;;5036922;28;21017;-69
2020/12/06 00:52:05;;;;;;;3.07;2.87;;;19.70;47.30;;;;;;5043374;28;20554;-68
2020/12/06 00:54:31;;;;;;;3.20;3.00;;;19.70;47.90;;;;;;5034706;28;20489;-68
2020/12/06 00:56:57;;;;;;;2.60;2.40;;;19.70;47.20;;;;;;5033215;28;20607;-69
2020/12/06 00:59:23;;;;;;;3.50;3.17;;;19.70;47.00;;;;;;5044075;28;20574;-70
2020/12/06 01:01:50;;;;;;;3.00;2.80;;;19.80;47.10;;;;;;5038066;28;20914;-68
2020/12/06 01:04:17;;;;;;;2.90;2.70;;;19.80;47.10;;;;;;5046631;28;21168;-68
2020/12/06 01:06:43;;;;;;;3.60;3.30;;;19.80;47.10;;;;;;5051846;28;20530;-68
2020/12/06 01:09:09;;;;;;;2.50;2.40;;;19.80;47.00;;;;;;5042841;28;20505;-69
2020/12/06 01:11:35;;;;;;;3.00;2.80;;;19.80;47.00;;;;;;5045185;28;20499;-68
2020/12/06 01:14:01;;;;;;;3.20;3.07;;;19.80;47.00;;;;;;5015600;28;20547;-68
2020/12/06 01:16:27;;;;;;;3.63;3.00;;;19.80;47.00;;;;;;5020019;28;20481;-68
2020/12/06 01:18:54;;;;;;;3.00;2.80;;;19.80;47.00;;;;;;5018125;28;20515;-69
2020/12/06 01:21:20;;;;;;;3.13;2.97;;;19.80;47.10;;;;;;5044995;28;20485;-67
2020/12/06 01:23:46;;;;;;;2.60;2.50;;;19.80;47.00;;;;;;5031399;28;20546;-69
2020/12/06 01:26:12;;;;;;;3.30;3.10;;;19.80;47.10;;;;;;5048563;28;20494;-69
2020/12/06 01:28:38;;;;;;;3.20;3.00;;;19.70;47.00;;;;;;5049092;28;20532;-69
2020/12/06 01:31:06;;;;;;;3.03;2.73;;;19.80;47.10;;;;;;5051330;28;20630;-67
2020/12/06 01:33:32;;;;;;;2.80;2.70;;;19.80;47.10;;;;;;5056122;28;20560;-68
2020/12/06 01:35:59;;;;;;;3.30;3.10;;;19.80;47.00;;;;;;5052636;28;20988;-69
2020/12/06 01:38:25;;;;;;;3.07;2.97;;;19.80;47.00;;;;;;5047275;28;20482;-65
2020/12/06 01:40:51;;;;;;;3.27;3.07;;;19.80;47.00;;;;;;5052942;28;20543;-68
2020/12/06 01:43:17;;;;;;;3.17;3.07;;;19.80;46.90;;;;;;5045450;28;20575;-68
2020/12/06 01:45:43;;;;;;;3.53;3.27;;;19.90;46.90;;;;;;5028418;28;20532;-69
2020/12/06 01:48:09;;;;;;;3.43;3.00;;;19.90;46.90;;;;;;5042716;28;20574;-68
2020/12/06 01:50:35;;;;;;;2.97;2.87;;;19.80;46.80;;;;;;5032784;28;20484;-68
2020/12/06 01:53:03;;;;;;;3.27;3.10;;;19.80;46.90;;;;;;5037960;28;21436;-68
2020/12/06 01:55:29;;;;;;;3.33;3.13;;;19.80;46.90;;;;;;5057387;28;21029;-69
2020/12/06 01:58:01;;;;;;;3.43;3.23;;;19.80;46.90;;;;;;5023904;28;20572;-69
2020/12/06 02:00:27;;;;;;;2.87;2.67;;;19.80;47.00;;;;;;5041740;28;20478;-69
2020/12/06 02:02:53;;;;;;;2.97;2.77;;;19.80;47.00;;;;;;5061017;28;20517;-70
2020/12/06 02:05:19;;;;;;;2.70;2.57;;;19.70;47.00;;;;;;5072436;28;20480;-68
2020/12/06 02:07:45;;;;;;;3.43;3.23;;;19.70;47.70;;;;;;5058937;28;20493;-69
2020/12/06 02:10:12;;;;;;;3.27;3.07;;;19.80;47.10;;;;;;5071272;28;21958;-68
2020/12/06 02:12:40;;;;;;;3.47;3.20;;;19.70;47.00;;;;;;5053199;28;20481;-67
2020/12/06 02:15:06;;;;;;;2.67;2.57;;;19.70;47.00;;;;;;5056429;28;20486;-71
2020/12/06 02:17:32;;;;;;;3.73;3.27;;;19.80;47.00;;;;;;5054128;28;20518;-68
2020/12/06 02:19:59;;;;;;;3.60;3.40;;;19.80;46.80;;;;;;5049501;28;20515;-68
2020/12/06 02:22:25;;;;;;;3.73;3.37;;;19.80;46.80;;;;;;5048257;28;20484;-69
2020/12/06 02:24:51;;;;;;;3.07;2.97;;;19.90;46.90;;;;;;5037768;28;21237;-69
2020/12/06 02:27:17;;;;;;;3.00;2.80;;;19.90;46.80;;;;;;5061045;28;20489;-68
2020/12/06 02:29:43;;;;;;;3.33;3.07;;;19.80;46.70;;;;;;5065963;28;20526;-69
2020/12/06 02:32:09;;;;;;;3.00;2.80;;;19.90;46.80;;;;;;5065238;28;20491;-69
2020/12/06 02:34:36;;;;;;;3.70;3.47;;;19.90;46.70;;;;;;5063459;28;20489;-69
2020/12/06 02:37:03;;;;;;;3.53;2.97;;;19.90;46.60;;;;;;5047222;28;21009;-68
2020/12/06 02:39:29;;;;;;;3.77;3.47;;;20.00;46.60;;;;;;5050743;28;20478;-69
2020/12/06 02:41:55;;;;;;;3.53;3.33;;;19.90;46.50;;;;;;5044857;28;20519;-68
2020/12/06 02:44:21;;;;;;;3.03;2.83;;;19.90;46.50;;;;;;5040979;28;20481;-69
2020/12/06 02:46:47;;;;;;;5.60;4.10;;;19.90;46.50;;;;;;5060030;28;20481;-68
2020/12/06 02:49:13;;;;;;;2.70;2.50;;;19.90;46.60;;;;;;5056631;28;20489;-67
2020/12/06 02:51:39;;;;;;;3.20;3.00;;;19.90;46.70;;;;;;5051380;28;20559;-68
2020/12/06 02:54:06;;;;;;;3.53;3.20;;;19.80;46.40;;;;;;5035754;28;20481;-68
2020/12/06 02:56:32;;;;;;;3.87;3.57;;;19.80;46.60;;;;;;5079820;28;20481;-68
2020/12/06 02:58:58;;;;;;;3.50;3.20;;;19.80;46.70;;;;;;5066216;28;20493;-68
2020/12/06 03:01:27;;;;;;;4.10;3.80;;;19.80;46.70;;;;;;5039955;28;20484;-69
2020/12/06 03:03:53;;;;;;;4.30;3.50;;;19.80;46.80;;;;;;5040010;28;20489;-68
2020/12/06 03:06:19;;;;;;;4.00;3.50;;;19.80;46.80;;;;;;5071876;28;20538;-69
2020/12/06 03:08:45;;;;;;;4.17;3.87;;;19.80;46.70;;;;;;5074079;28;21537;-69
2020/12/06 03:11:12;;;;;;;3.33;3.00;;;19.80;46.70;;;;;;5036017;28;20478;-67
2020/12/06 03:13:38;;;;;;;4.03;3.77;;;19.80;47.50;;;;;;5039910;28;20489;-68
2020/12/06 03:16:04;;;;;;;3.53;3.23;;;19.80;46.60;;;;;;5050277;28;21001;-70
2020/12/06 03:18:30;;;;;;;4.40;4.10;;;19.80;46.60;;;;;;5046427;28;20540;-67
2020/12/06 03:20:57;;;;;;;3.77;3.47;;;19.80;46.50;;;;;;5049088;28;20478;-68
2020/12/06 03:23:23;;;;;;;3.27;3.00;;;19.80;46.50;;;;;;5041975;28;20560;-69
2020/12/06 03:25:49;;;;;;;3.57;3.27;;;19.80;46.50;;;;;;5038030;28;20482;-68
2020/12/06 03:28:16;;;;;;;4.00;3.70;;;19.80;46.60;;;;;;5061340;28;20628;-68
2020/12/06 03:30:42;;;;;;;3.10;2.90;;;19.80;46.50;;;;;;5066046;28;20564;-68
2020/12/06 03:33:08;;;;;;;3.30;3.10;;;19.80;46.50;;;;;;5047813;28;20603;-68
2020/12/06 03:35:34;;;;;;;3.43;3.23;;;19.80;46.60;;;;;;5043374;28;20494;-69
2020/12/06 03:38:00;;;;;;;3.53;3.27;;;19.80;46.50;;;;;;5034694;28;20590;-69
2020/12/06 03:40:26;;;;;;;3.60;3.40;;;19.80;46.50;;;;;;5047294;28;21485;-69
2020/12/06 03:42:52;;;;;;;3.97;3.77;;;19.80;46.60;;;;;;5042437;28;20490;-67
2020/12/06 03:45:19;;;;;;;3.43;3.20;;;19.80;46.60;;;;;;5013728;28;20549;-69
2020/12/06 03:47:45;;;;;;;4.27;4.00;;;19.80;46.70;;;;;;5047336;28;21558;-68
2020/12/06 03:50:11;;;;;;;3.77;3.57;;;19.80;46.80;;;;;;5031948;28;20572;-68
2020/12/06 03:52:37;;;;;;;3.20;2.83;;;19.70;46.70;;;;;;5026483;28;20502;-68
2020/12/06 03:55:03;;;;;;;4.27;3.97;;;19.70;46.70;;;;;;5048718;28;20642;-67
2020/12/06 03:57:29;;;;;;;3.27;3.03;;;19.70;46.80;;;;;;5044271;28;21917;-68
2020/12/06 03:59:55;;;;;;;4.03;3.83;;;19.70;46.80;;;;;;5049053;28;20535;-69
2020/12/06 04:02:22;;;;;;;4.13;3.83;;;19.70;46.80;;;;;;5032962;28;20478;-69
2020/12/06 04:04:48;;;;;;;4.07;3.87;;;19.70;46.80;;;;;;5041112;28;20532;-67
2020/12/06 04:07:14;;;;;;;5.03;3.60;;;19.70;46.80;;;;;;5038553;28;21649;-69
2020/12/06 04:09:40;;;;;;;3.10;2.83;;;19.70;46.70;;;;;;5017156;28;20494;-67
2020/12/06 04:12:06;;;;;;;4.00;3.63;;;19.70;46.60;;;;;;5013726;28;20532;-68
2020/12/06 04:14:33;;;;;;;3.97;3.67;;;19.70;46.60;;;;;;5014531;28;20493;-68
2020/12/06 04:16:59;;;;;;;3.70;3.40;;;19.80;46.60;;;;;;5035504;28;20619;-68
2020/12/06 04:19:25;;;;;;;4.17;3.73;;;19.80;46.60;;;;;;5005088;28;20499;-69
2020/12/06 04:21:52;;;;;;;3.10;2.90;;;19.80;46.60;;;;;;5039161;28;20482;-68
2020/12/06 04:24:18;;;;;;;3.60;3.30;;;19.80;46.60;;;;;;5027330;28;20486;-67
2020/12/06 04:26:44;;;;;;;3.90;3.60;;;19.80;46.40;;;;;;5047904;28;20517;-69
2020/12/06 04:29:10;;;;;;;4.00;3.70;;;19.80;46.40;;;;;;5011604;28;20516;-68
2020/12/06 04:31:36;;;;;;;3.13;2.93;;;19.80;46.40;;;;;;5016906;28;21219;-68
2020/12/06 04:34:02;;;;;;;3.67;3.47;;;19.80;46.50;;;;;;5031468;28;20477;-68
2020/12/06 04:36:29;;;;;;;4.07;3.80;;;19.90;46.50;;;;;;5045701;28;20517;-68
2020/12/06 04:38:55;;;;;;;3.87;3.53;;;19.90;46.50;;;;;;5056874;28;20474;-68
2020/12/06 04:41:23;;;;;;;4.03;3.63;;;19.80;46.40;;;;;;5034135;28;21364;-68
2020/12/06 04:43:49;;;;;;;3.80;3.40;;;19.80;46.40;;;;;;5028528;28;20576;-69
2020/12/06 04:46:15;;;;;;;3.80;3.50;;;19.80;46.40;;;;;;5044664;28;20493;-69
2020/12/06 04:48:51;;;;;;;3.50;3.30;;;19.80;46.50;;;;;;5054124;28;20478;-68
2020/12/06 04:51:17;;;;;;;3.30;3.10;;;19.80;46.40;;;;;;5034002;28;20547;-69
2020/12/06 04:53:47;;;;;;;4.07;3.70;;;19.80;46.40;;;;;;5048279;28;20545;-69
2020/12/06 04:56:13;;;;;;;3.90;3.60;;;19.80;46.50;;;;;;5060096;28;20842;-70
2020/12/06 04:58:39;;;;;;;4.10;3.80;;;19.90;46.50;;;;;;5057968;28;20489;-67
2020/12/06 05:01:05;;;;;;;3.70;3.40;;;19.90;46.50;;;;;;5050616;28;20932;-69
2020/12/06 05:03:31;;;;;;;3.57;3.37;;;19.80;46.40;;;;;;5037708;28;20568;-68
2020/12/06 05:05:57;;;;;;;3.33;3.13;;;19.80;46.40;;;;;;5052710;28;20482;-66
2020/12/06 05:08:24;;;;;;;3.73;3.53;;;19.90;46.60;;;;;;5058861;28;21694;-67
2020/12/06 05:10:51;;;;;;;4.10;3.70;;;19.80;46.40;;;;;;5068688;28;20473;-68
2020/12/06 05:13:17;;;;;;;4.50;4.20;;;19.80;46.40;;;;;;5036579;28;20921;-68
2020/12/06 05:15:44;;;;;;;3.17;2.97;;;19.80;46.40;;;;;;5063301;28;20510;-69
2020/12/06 05:18:10;;;;;;;3.20;3.00;;;19.70;46.40;;;;;;5063588;28;21054;-67
2020/12/06 05:20:36;;;;;;;4.07;3.40;;;19.70;46.60;;;;;;5067939;28;21060;-67
2020/12/06 05:23:02;;;;;;;3.60;3.30;;;19.70;46.70;;;;;;5077394;28;20477;-67
2020/12/06 05:25:28;;;;;;;3.70;3.40;;;19.70;46.60;;;;;;5048624;28;20984;-68
2020/12/06 05:27:55;;;;;;;5.50;4.30;;;19.70;46.70;;;;;;5052577;28;20543;-69
2020/12/06 05:30:21;;;;;;;4.00;3.70;;;19.70;46.70;;;;;;5071990;28;20488;-68
2020/12/06 05:32:47;;;;;;;4.03;3.83;;;19.60;46.60;;;;;;5073424;28;20518;-68
2020/12/06 05:35:13;;;;;;;3.43;3.23;;;19.60;46.60;;;;;;5050930;28;20544;-67
2020/12/06 05:37:42;;;;;;;3.90;3.60;;;19.60;46.70;;;;;;5031107;28;20521;-68
2020/12/06 05:40:09;;;;;;;4.63;3.93;;;19.60;46.70;;;;;;5032502;28;20482;-69
2020/12/06 05:42:36;;;;;;;5.20;4.50;;;19.60;46.70;;;;;;5052174;28;20556;-69
2020/12/06 05:45:03;;;;;;;3.60;3.40;;;19.70;46.80;;;;;;5041943;28;20985;-68
2020/12/06 05:47:29;;;;;;;4.20;3.87;;;19.60;46.70;;;;;;5052074;28;21871;-68
2020/12/06 05:49:56;;;;;;;4.00;3.77;;;19.70;46.80;;;;;;5042253;28;20474;-69
2020/12/06 05:52:22;;;;;;;5.83;3.40;;;19.70;46.70;;;;;;5053466;28;20548;-69
2020/12/06 05:54:48;;;;;;;3.53;3.30;;;19.60;46.70;;;;;;5041308;28;20904;-69
2020/12/06 05:57:14;;;;;;;4.70;3.90;;;19.60;46.70;;;;;;5050870;28;21053;-68
2020/12/06 05:59:40;;;;;;;4.13;3.83;;;19.60;46.90;;;;;;5047178;28;20481;-68
2020/12/06 06:02:07;;;;;;;5.47;3.50;;;19.50;47.00;;;;;;5013383;28;20517;-69
2020/12/06 06:04:37;;;;;;;3.90;3.70;;;19.50;47.00;;;;;;5041145;28;20482;-69
2020/12/06 06:07:03;;;;;;;3.73;3.50;;;19.50;47.00;;;;;;5041689;28;20470;-69
2020/12/06 06:09:30;;;;;;;4.13;3.83;;;19.50;47.10;;;;;;5014070;28;21032;-69
2020/12/06 06:11:56;;;;;;;3.60;3.40;;;19.50;47.10;;;;;;5068777;28;20505;-69
2020/12/06 06:14:23;;;;;;;3.83;3.63;;;19.50;47.10;;;;;;5067091;28;20487;-69
2020/12/06 06:16:51;;;;;;;4.80;4.20;;;19.50;47.00;;;;;;5056109;28;20465;-70
2020/12/06 06:19:19;;;;;;;3.37;3.17;;;19.50;46.90;;;;;;5063917;28;20498;-71
2020/12/06 06:21:45;;;;;;;4.30;3.90;;;19.60;46.90;;;;;;5064434;28;20517;-69
2020/12/06 06:24:13;;;;;;;4.40;4.10;;;19.60;46.70;;;;;;5030680;28;20493;-69
2020/12/06 06:26:39;;;;;;;4.60;4.20;;;19.70;46.80;;;;;;5048764;28;20496;-69
2020/12/06 06:29:10;;;;;;;4.30;3.90;;;19.60;46.70;;;;;;5069790;28;20520;-67
2020/12/06 06:31:36;;;;;;;4.30;4.10;;;19.60;46.80;;;;;;5076250;28;20490;-69
2020/12/06 06:34:03;;;;;;;3.93;3.63;;;19.70;46.80;;;;;;5074855;28;20908;-69
2020/12/06 06:36:30;;;;;;;3.70;3.50;;;19.70;46.60;;;;;;5073841;28;20547;-69
2020/12/06 06:38:56;;;;;;;4.23;3.73;;;19.80;46.40;;;;;;5055389;28;20551;-69
2020/12/06 06:41:22;;;;;;;3.80;3.60;;;19.80;46.40;;;;;;5061193;28;20486;-69
2020/12/06 06:43:48;;;;;;;3.50;3.30;;;19.90;46.50;;;;;;5031429;28;20494;-69
2020/12/06 06:46:16;;;;;;;3.17;2.97;;;19.90;46.50;;;;;;5052746;28;20489;-69
2020/12/06 06:48:45;;;;;;;3.70;3.50;;;19.90;46.50;;;;;;5004074;28;20490;-68
2020/12/06 06:51:19;;;;;;;3.70;3.40;;;19.90;46.50;;;;;;5041983;28;20491;-69
2020/12/06 06:53:46;;;;;;;3.87;3.50;;;19.90;46.50;;;;;;5026097;28;20482;-65
2020/12/06 06:56:12;;;;;;;4.40;3.40;;;19.90;46.50;;;;;;5050520;28;21117;-70
2020/12/06 06:58:38;;;;;;;3.80;3.50;;;19.80;46.50;;;;;;5044518;28;20542;-69
2020/12/06 07:01:17;;;;;;;3.43;3.23;;;19.70;46.70;;;;;;5052502;28;21509;-69
2020/12/06 07:03:44;;;;;;;4.37;4.07;;;19.70;46.80;;;;;;5043408;28;20481;-67
2020/12/06 07:06:10;;;;;;;3.67;3.43;;;19.70;47.00;;;;;;5050397;28;20493;-69
2020/12/06 07:08:36;;;;;;;3.97;3.57;;;19.60;47.00;;;;;;5028684;28;20491;-70
2020/12/06 07:11:05;;;;;;;3.70;3.50;;;19.60;47.10;;;;;;5050545;28;20548;-69
2020/12/06 07:13:31;;;;;;;3.50;3.20;;;19.60;47.00;;;;;;5026048;28;20486;-68
2020/12/06 07:15:57;;;;;;;3.50;3.30;;;19.70;47.10;;;;;;5015555;28;20486;-68
2020/12/06 07:18:24;;;;;;;4.47;4.07;;;19.70;46.90;;;;;;5035300;28;20495;-69
2020/12/06 07:20:50;;;;;;;3.00;2.90;;;19.80;46.90;;;;;;5053328;28;20528;-69
2020/12/06 07:23:16;;;;;;;3.57;3.27;;;19.90;46.70;;;;;;5038149;28;20497;-69
2020/12/06 07:25:42;;;;;;;3.60;3.40;;;19.90;46.50;;;;;;5014778;28;20478;-68
2020/12/06 07:28:09;;;;;;;3.30;3.20;;;20.00;46.60;;;;;;5032947;28;20541;-69
2020/12/06 07:30:35;;;;;;;3.10;2.90;;;20.00;46.50;;;;;;5035177;28;20682;-69
2020/12/06 07:33:01;;;;;;;3.60;3.30;;;20.10;46.30;;;;;;5031534;28;20495;-69
2020/12/06 07:35:27;;;;;;;3.77;3.47;;;20.10;46.30;;;;;;5043680;28;20588;-69
2020/12/06 07:37:55;;;;;;;3.40;3.20;;;20.10;46.20;;;;;;5018481;28;20896;-70
2020/12/06 07:40:21;;;;;;;3.33;3.13;;;20.20;46.20;;;;;;5020473;28;20500;-66
2020/12/06 07:42:47;;;;;;;3.80;3.60;;;20.20;46.10;;;;;;5069588;28;20885;-69
2020/12/06 07:45:14;;;;;;;3.00;2.90;;;20.20;46.10;;;;;;5053658;28;20581;-69
2020/12/06 07:47:40;;;;;;;3.47;3.27;;;20.20;46.10;;;;;;5071692;28;20538;-69
2020/12/06 07:50:06;;;;;;;3.57;3.40;;;20.10;46.10;;;;;;5065471;28;21189;-68
2020/12/06 07:52:33;;;;;;;3.80;3.50;;;20.10;46.20;;;;;;5071616;28;20488;-68
2020/12/06 07:55:01;;;;;;;3.63;3.40;;;20.10;46.40;;;;;;5073658;28;20480;-69
2020/12/06 07:57:36;;;;;;;3.93;3.73;;;20.10;46.40;;;;;;5051484;28;20477;-67
2020/12/06 08:00:02;;;;;;;2.93;2.73;;;20.00;46.50;;;;;;5036974;28;20555;-70
2020/12/06 08:02:32;;;;;;;3.33;3.13;;;20.00;46.60;;;;;;5070262;28;20893;-69
2020/12/06 08:04:58;;;;;;;4.13;3.87;;;19.90;46.50;;;;;;5040508;28;20560;-68
2020/12/06 08:07:27;;;;;;;3.17;2.97;;;19.90;46.50;;;;;;5070682;28;20549;-71
2020/12/06 08:09:53;;;;;;;3.07;2.97;;;19.90;46.50;;;;;;5069529;28;21007;-69
2020/12/06 08:12:19;;;;;;;3.47;3.27;;;20.00;46.60;;;;;;5052772;28;20481;-68
2020/12/06 08:14:46;;;;;;;4.17;3.77;;;20.00;46.60;;;;;;5068421;28;20523;-68
2020/12/06 08:17:12;;;;;;;2.83;2.70;;;20.00;46.60;;;;;;5055186;28;20547;-68
2020/12/06 08:19:41;;;;;;;2.90;2.80;;;20.00;46.60;;;;;;5034271;28;20488;-67
2020/12/06 08:22:08;;;;;;;3.30;3.10;;;20.10;46.70;;;;;;5033331;28;20482;-69
2020/12/06 08:24:34;;;;;;;3.80;3.50;;;20.10;46.60;;;;;;5017903;28;20915;-70
2020/12/06 08:27:00;;;;;;;4.20;3.90;;;20.10;46.60;;;;;;5031013;28;20493;-70
2020/12/06 08:29:39;;;;;;;3.20;2.90;;;20.10;46.50;;;;;;5045287;28;20478;-68
2020/12/06 08:32:05;;;;;;;3.77;3.47;;;20.10;46.40;;;;;;5039484;28;20486;-69
2020/12/06 08:34:31;;;;;;;4.17;3.87;;;20.10;46.50;;;;;;5059553;28;20494;-69
2020/12/06 08:37:14;;;;;;;3.87;3.57;;;20.00;46.60;;;;;;4982815;28;20927;-69
2020/12/06 08:39:40;;;;;;;3.30;3.10;;;20.00;46.60;;;;;;5071526;28;20979;-68
2020/12/06 08:42:12;;;;;;;3.57;3.37;;;20.00;46.60;;;;;;5061494;28;20492;-69
2020/12/06 08:44:53;;;;;;;4.17;3.87;;;20.00;46.60;;;;;;5080315;28;20465;-67
2020/12/06 08:47:20;;;;;;;4.10;3.80;;;20.00;46.60;;;;;;5059499;28;20503;-70
2020/12/06 08:49:46;;;;;;;3.23;2.93;;;20.00;46.60;;;;;;5076001;28;20503;-69
2020/12/06 08:52:20;;;;;;;3.53;3.33;;;20.00;46.60;;;;;;5052248;28;20917;-68
2020/12/06 08:54:48;;;;;;;3.20;3.00;;;20.00;46.60;;;;;;5047897;28;20496;-68
2020/12/06 08:57:14;;;;;;;4.20;3.80;;;20.00;46.60;;;;;;5063883;28;20545;-69
2020/12/06 08:59:41;;;;;;;3.40;3.10;;;20.00;46.60;;;;;;5061306;28;20562;-69
2020/12/06 09:02:08;;;;;;;3.13;2.93;;;20.00;46.60;;;;;;5048992;28;20501;-69
2020/12/06 09:04:34;;;;;;;3.40;3.20;;;20.00;46.60;;;;;;5047837;28;20561;-70
2020/12/06 09:07:00;;;;;;;3.93;3.63;;;20.00;46.60;;;;;;5050020;28;20481;-67
2020/12/06 09:09:27;;;;;;;3.20;3.10;;;20.00;46.60;;;;;;5083757;28;20490;-68
2020/12/06 09:11:53;;;;;;;3.27;3.07;;;20.00;46.60;;;;;;5041278;28;20513;-68
2020/12/06 09:14:19;;;;;;;3.70;3.50;;;20.00;46.60;;;;;;5045735;28;20518;-68
2020/12/06 09:16:45;;;;;;;3.23;3.03;;;20.00;46.60;;;;;;5052277;28;21428;-69
2020/12/06 09:19:11;;;;;;;7.37;3.70;;;20.10;46.70;;;;;;5058028;28;20536;-69
2020/12/06 09:21:37;;;;;;;3.60;3.40;;;20.10;46.70;;;;;;5048097;28;20470;-69
2020/12/06 09:24:04;;;;;;;3.17;2.97;;;20.10;46.70;;;;;;5050386;28;21394;-70
2020/12/06 09:26:30;;;;;;;3.50;3.20;;;20.10;46.70;;;;;;5020327;28;20495;-69
2020/12/06 09:28:57;;;;;;;3.70;3.50;;;20.00;46.60;;;;;;5050290;28;21067;-69
2020/12/06 09:31:23;;;;;;;3.20;3.00;;;20.00;46.60;;;;;;5038319;28;20481;-69
2020/12/06 09:33:49;;;;;;;2.73;2.60;;;20.00;46.60;;;;;;5053248;28;20985;-68
2020/12/06 09:36:15;;;;;;;3.40;3.10;;;20.00;46.60;;;;;;5058714;28;20531;-70
2020/12/06 09:38:41;;;;;;;2.70;2.60;;;20.00;46.60;;;;;;5064002;28;20491;-68
2020/12/06 09:41:08;;;;;;;4.17;3.77;;;20.00;47.30;;;;;;5074043;28;20486;-69
2020/12/06 09:43:35;;;;;;;2.93;2.83;;;20.00;46.60;;;;;;5060471;28;21424;-69
2020/12/06 09:46:01;;;;;;;3.23;2.93;;;20.00;46.60;;;;;;5068865;28;20541;-70
2020/12/06 09:48:27;;;;;;;3.57;2.77;;;20.00;46.60;;;;;;5072117;28;21288;-70
2020/12/06 09:50:53;;;;;;;3.77;3.57;;;20.00;46.60;;;;;;5075074;28;20481;-70
2020/12/06 09:53:19;;;;;;;3.80;3.50;;;20.00;46.60;;;;;;5075107;28;20559;-70
2020/12/06 09:55:45;;;;;;;3.50;3.20;;;20.00;46.60;;;;;;5066215;28;20493;-69
2020/12/06 09:58:11;;;;;;;3.87;3.60;;;20.00;46.60;;;;;;5042557;28;20542;-69
2020/12/06 10:00:39;;;;;;;2.90;2.80;;;20.00;46.60;;;;;;5053808;28;20535;-68
2020/12/06 10:03:05;;;;;;;5.07;2.50;;;20.10;46.70;;;;;;5050292;28;20493;-69
2020/12/06 10:05:31;;;;;;;4.00;3.80;;;20.10;46.70;;;;;;5051274;28;21013;-68
2020/12/06 10:07:57;;;;;;;4.10;3.10;;;20.10;46.70;;;;;;5057050;28;20624;-69
2020/12/06 10:10:23;;;;;;;3.17;2.97;;;20.10;46.70;;;;;;5043503;28;20516;-70
2020/12/06 10:12:49;;;;;;;3.50;3.27;;;20.10;46.70;;;;;;5028457;28;20548;-71
2020/12/06 10:15:15;;;;;;;3.10;2.90;;;20.20;46.80;;;;;;5037706;28;21008;-70
2020/12/06 10:17:42;;;;;;;2.90;2.70;;;20.20;46.80;;;;;;5062458;28;20562;-70
2020/12/06 10:20:08;;;;;;;3.63;3.43;;;20.20;46.90;;;;;;5059721;28;20563;-67
2020/12/06 10:22:34;;;;;;;3.97;3.60;;;20.20;46.80;;;;;;5058775;28;20579;-69
2020/12/06 10:25:00;;;;;;;3.60;3.30;;;20.20;46.80;;;;;;5057070;28;20484;-69
2020/12/06 10:27:26;;;;;;;3.57;3.27;;;20.20;46.80;;;;;;5079604;28;20547;-69
2020/12/06 10:29:52;;;;;;;3.40;3.20;;;20.20;47.60;;;;;;5055553;28;20465;-69
2020/12/06 10:32:18;;;;;;;4.07;3.77;;;20.10;46.70;;;;;;5060114;28;20944;-68
2020/12/06 10:34:45;;;;;;;3.40;3.20;;;20.10;46.70;;;;;;5031988;28;20485;-69
2020/12/06 10:37:11;;;;;;;3.17;2.97;;;20.10;46.70;;;;;;5042461;28;20524;-70
2020/12/06 10:39:37;;;;;;;3.90;3.60;;;20.10;46.80;;;;;;5056231;28;20931;-68
2020/12/06 10:42:03;;;;;;;3.83;3.17;;;20.00;46.90;;;;;;5062849;28;20613;-68
2020/12/06 10:44:30;;;;;;;3.13;3.00;;;20.00;47.00;;;;;;5039922;28;20527;-68
2020/12/06 10:46:56;;;;;;;3.90;3.60;;;20.00;47.20;;;;;;5022867;28;20537;-68
2020/12/06 10:49:22;;;;;;;3.50;3.20;;;20.00;47.20;;;;;;5013394;28;20536;-68
2020/12/06 10:51:49;;;;;;;3.23;3.03;;;20.00;47.10;;;;;;5045482;28;20490;-70
2020/12/06 10:54:16;;;;;;;2.77;2.67;;;20.00;47.00;;;;;;5025192;28;20506;-69
2020/12/06 10:56:42;;;;;;;3.50;3.30;;;20.10;47.90;;;;;;5044273;28;20601;-70
2020/12/06 10:59:09;;;;;;;3.60;3.40;;;20.10;47.00;;;;;;5021002;28;20501;-68
2020/12/06 11:01:35;;;;;;;3.57;3.37;;;20.10;47.80;;;;;;5057271;28;20486;-68
2020/12/06 11:04:02;;;;;;;3.20;3.10;;;20.10;46.90;;;;;;5029478;28;20482;-68
2020/12/06 11:06:28;;;;;;;3.90;3.60;;;20.10;46.80;;;;;;5050257;28;20486;-69
2020/12/06 11:08:55;;;;;;;3.27;3.00;;;20.10;46.80;;;;;;5002084;28;21010;-69
2020/12/06 11:11:21;;;;;;;3.10;2.90;;;20.10;46.90;;;;;;5046334;28;20493;-70
2020/12/06 11:13:47;;;;;;;5.90;3.73;;;20.10;47.00;;;;;;5041349;28;21016;-69
2020/12/06 11:16:15;;;;;;;3.40;3.20;;;20.10;47.10;;;;;;5045841;28;20491;-69
2020/12/06 11:18:41;;;;;;;4.03;3.77;;;20.00;47.10;;;;;;5029648;28;20575;-69
2020/12/06 11:21:07;;;;;;;3.20;3.00;;;20.00;47.10;;;;;;5008009;28;21137;-68
2020/12/06 11:23:33;;;;;;;3.40;3.20;;;20.10;47.10;;;;;;5059705;28;20589;-69
2020/12/06 11:26:00;;;;;;;3.43;3.23;;;20.00;47.10;;;;;;5056876;28;20488;-69
2020/12/06 11:28:26;;;;;;;4.53;3.00;;;20.10;47.10;;;;;;5083942;28;20489;-69
2020/12/06 11:30:52;;;;;;;5.77;3.80;;;20.10;47.00;;;;;;5074817;28;21031;-70
2020/12/06 11:33:18;;;;;;;3.87;3.40;;;20.10;47.00;;;;;;5064304;28;21573;-70
2020/12/06 11:35:45;;;;;;;7.73;3.70;;;20.10;47.00;;;;;;5073915;28;20497;-68
2020/12/06 11:38:11;;;;;;;3.40;3.20;;;20.10;47.00;;;;;;5049896;28;20511;-69
2020/12/06 11:40:37;;;;;;;3.53;3.33;;;20.10;47.10;;;;;;5065541;28;20485;-69
2020/12/06 11:43:04;;;;;;;3.73;3.47;;;20.10;47.10;;;;;;5046736;28;20477;-70
2020/12/06 11:45:30;;;;;;;3.03;2.93;;;20.10;47.10;;;;;;5043555;28;20943;-68
2020/12/06 11:47:57;;;;;;;3.00;2.90;;;20.10;47.10;;;;;;5064667;28;20542;-68
2020/12/06 11:50:23;;;;;;;4.47;4.17;;;20.10;47.00;;;;;;5040580;28;20535;-68
2020/12/06 11:52:49;;;;;;;3.57;3.30;;;20.10;47.10;;;;;;5051483;28;20470;-70
2020/12/06 11:55:15;;;;;;;4.47;3.77;;;20.10;47.20;;;;;;5071912;28;20906;-68
2020/12/06 11:57:41;;;;;;;3.50;3.30;;;20.10;47.10;;;;;;5040397;28;20469;-69
2020/12/06 12:00:08;;;;;;;3.50;3.20;;;20.10;47.10;;;;;;5049451;28;20474;-68
2020/12/06 12:02:34;;;;;;;3.23;3.03;;;20.10;47.10;;;;;;5066205;28;21091;-68
2020/12/06 12:05:00;;;;;;;4.63;4.20;;;20.10;47.20;;;;;;5063411;28;20484;-69
2020/12/06 12:07:26;;;;;;;4.10;3.80;;;20.10;47.20;;;;;;5060719;28;20547;-69
2020/12/06 12:09:52;;;;;;;4.40;4.10;;;20.10;47.20;;;;;;5028587;28;20536;-69
2020/12/06 12:12:18;;;;;;;4.30;4.00;;;20.10;47.30;;;;;;5043886;28;20486;-67
2020/12/06 12:14:44;;;;;;;3.73;3.43;;;20.00;47.20;;;;;;5022091;28;20534;-69
2020/12/06 12:17:11;;;;;;;3.30;3.10;;;20.00;47.30;;;;;;5047573;28;20486;-68
2020/12/06 12:19:37;;;;;;;3.33;3.13;;;20.00;47.30;;;;;;5047472;28;20996;-68
2020/12/06 12:22:04;;;;;;;3.60;3.27;;;20.00;47.30;;;;;;5047878;28;20535;-68
2020/12/06 12:24:30;;;;;;;4.73;4.30;;;20.00;47.30;;;;;;5036798;28;21006;-69
2020/12/06 12:26:57;;;;;;;3.63;3.40;;;20.00;47.30;;;;;;5032072;28;20631;-67
2020/12/06 12:29:23;;;;;;;5.17;4.77;;;20.00;47.30;;;;;;5037540;28;20484;-69
2020/12/06 12:31:49;;;;;;;3.90;3.60;;;20.10;47.40;;;;;;5047676;28;20489;-70
2020/12/06 12:34:16;;;;;;;4.80;4.40;;;20.10;47.40;;;;;;5036208;28;20485;-69
2020/12/06 12:36:42;;;;;;;4.30;3.93;;;20.10;47.30;;;;;;5040367;28;20493;-70
2020/12/06 12:39:08;;;;;;;4.00;3.70;;;20.10;47.30;;;;;;5032435;28;20498;-69
2020/12/06 12:41:35;;;;;;;4.03;3.63;;;20.00;47.20;;;;;;5048036;28;20474;-69
2020/12/06 12:44:01;;;;;;;4.60;3.73;;;20.00;47.30;;;;;;5028602;28;20493;-68